Terminal Aerodrome Forecast
Issued by NWS

Home | Current Version | Previous Version | Text Only | Print | Product List | Glossary Off
Versions: 1 2 3 4 5 6 7 8 9 10 11 12 13 14 15 16 17 18 19 20 21 22 23 24 25 26 27 28 29 30 31 32 33 34 35 36 37 38 39 40 41 42 43 44 45

000
FTUS43 KGLD 252320
TAFMCK
TAF
KMCK 252320Z 2600/2624 09012KT P6SM BKN040
     FM260500 08011KT 6SM BR OVC006
     FM260900 08010KT 4SM BR OVC004
     FM261500 09012KT 4SM BR OVC004
     FM261700 08012KT 5SM BR VCTS OVC006CB
     FM262000 07012KT P6SM VCTS SCT006 BKN015CB
     FM262300 07012KT P6SM SCT015 BKN030=

USA.gov is the U.S. government's official web portal to all federal, state and local government web resources and services.